Time;durP1;ratioP1;P1;durP2;ratioP2;P2;SDS_P1;SDS_P2;PMS_P1;PMS_P2;Temp;Humidity;BMP_temperature;BMP_pressure;BME280_temperature;BME280_humidity;BME280_pressure;Samples;Min_cycle;Max_cycle;Signal;HPM_P1;HPM_P2
2022/02/07 00:00:56;;;;;;;0.30;0.30;;;2.70;99.90;;;;;;4994070;28;20183;-71
2022/02/07 00:06:03;;;;;;;0.82;0.50;;;2.80;99.90;;;;;;4993932;28;20532;-72
2022/02/07 00:08:29;;;;;;;0.30;0.30;;;2.70;99.90;;;;;;4993946;28;20167;-73
2022/02/07 00:10:54;;;;;;;0.30;0.30;;;2.70;99.90;;;;;;4993998;28;20196;-74
2022/02/07 00:13:20;;;;;;;0.70;0.70;;;2.80;99.90;;;;;;4994271;28;20209;-72
2022/02/07 00:15:46;;;;;;;0.40;0.40;;;2.90;99.90;;;;;;4992943;28;20538;-73
2022/02/07 00:18:11;;;;;;;0.30;0.30;;;3.00;99.90;;;;;;4993639;28;20250;-73
2022/02/07 00:20:37;;;;;;;0.40;0.40;;;3.10;99.90;;;;;;4997098;28;20261;-72
2022/02/07 00:23:03;;;;;;;0.40;0.30;;;3.10;99.90;;;;;;4998739;28;20230;-72
2022/02/07 00:25:29;;;;;;;0.30;0.30;;;3.10;99.90;;;;;;4998176;28;20230;-72
2022/02/07 00:27:55;;;;;;;0.30;0.30;;;3.20;99.90;;;;;;4997706;28;20642;-72
2022/02/07 00:30:22;;;;;;;0.40;0.40;;;3.20;99.90;;;;;;4997649;28;20831;-72
2022/02/07 00:32:48;;;;;;;0.30;0.30;;;3.30;99.90;;;;;;4997842;28;20175;-71
2022/02/07 00:35:18;;;;;;;0.40;0.40;;;3.40;99.90;;;;;;4997912;28;20172;-73
2022/02/07 00:37:45;;;;;;;0.30;0.30;;;3.40;99.90;;;;;;4997448;28;20518;-73
2022/02/07 00:42:51;;;;;;;0.77;0.68;;;3.60;99.90;;;;;;5011734;28;20202;-72
2022/02/07 00:45:26;;;;;;;0.40;0.40;;;3.60;99.90;;;;;;5017330;28;20170;-72
2022/02/07 00:48:00;;;;;;;0.30;0.30;;;3.70;99.90;;;;;;5015476;28;20572;-73
2022/02/07 00:50:26;;;;;;;0.30;0.30;;;3.70;99.90;;;;;;5017068;28;20186;-72
2022/02/07 00:52:52;;;;;;;0.52;0.52;;;3.70;99.90;;;;;;5017084;28;20264;-73
2022/02/07 00:55:17;;;;;;;0.50;0.50;;;3.70;99.90;;;;;;5017249;28;20649;-74
2022/02/07 00:57:43;;;;;;;0.97;0.57;;;3.70;99.90;;;;;;5016652;28;20253;-73
2022/02/07 01:00:10;;;;;;;0.30;0.30;;;3.70;99.90;;;;;;5016866;28;20276;-73
2022/02/07 01:02:36;;;;;;;0.50;0.50;;;3.70;99.90;;;;;;5015865;28;20202;-74
2022/02/07 01:05:03;;;;;;;0.40;0.40;;;3.70;99.90;;;;;;5017337;28;20195;-73
2022/02/07 01:07:30;;;;;;;0.50;0.50;;;3.70;99.90;;;;;;5016751;28;20540;-74
2022/02/07 01:09:56;;;;;;;0.60;0.50;;;3.70;99.90;;;;;;5016599;28;20273;-73
2022/02/07 01:13:02;;;;;;;0.40;0.40;;;3.70;99.90;;;;;;5016735;28;20214;-73
2022/02/07 01:48:05;;;;;;;0.30;0.30;;;3.80;99.90;;;;;;5016630;28;20217;-73
2022/02/07 01:55:39;;;;;;;0.30;0.30;;;3.80;99.90;;;;;;5016106;28;20179;-73
2022/02/07 01:58:07;;;;;;;0.38;0.38;;;3.80;99.90;;;;;;5015684;28;20182;-73
2022/02/07 02:00:36;;;;;;;0.30;0.30;;;3.80;99.90;;;;;;5015890;28;20194;-72
2022/02/07 02:03:03;;;;;;;0.30;0.30;;;3.90;99.90;;;;;;5015918;28;20252;-73
2022/02/07 02:05:37;;;;;;;0.30;0.30;;;3.90;99.90;;;;;;5016061;28;20517;-73
2022/02/07 02:08:08;;;;;;;0.85;0.82;;;3.90;99.90;;;;;;5015520;28;20167;-75
2022/02/07 02:10:36;;;;;;;0.38;0.38;;;4.00;99.90;;;;;;5015737;28;20187;-74
2022/02/07 02:13:12;;;;;;;0.55;0.50;;;4.00;99.90;;;;;;5015685;28;20309;-74
2022/02/07 02:15:47;;;;;;;1.40;0.60;;;4.00;99.90;;;;;;5016106;28;20169;-74
2022/02/07 02:37:28;;;;;;;0.80;0.80;;;3.90;99.90;;;;;;5015282;28;20182;-74
2022/02/07 02:45:33;;;;;;;0.40;0.40;;;3.90;99.90;;;;;;5015242;28;20185;-74
2022/02/07 02:48:04;;;;;;;2.53;0.52;;;3.90;99.90;;;;;;5013368;28;20174;-74
2022/02/07 02:50:34;;;;;;;0.65;0.60;;;3.90;99.90;;;;;;5015077;28;20269;-72
2022/02/07 02:53:06;;;;;;;0.30;0.30;;;3.90;99.90;;;;;;5014772;28;20186;-73
2022/02/07 02:55:33;;;;;;;0.52;0.52;;;3.90;99.90;;;;;;5014878;28;20533;-72
2022/02/07 02:57:59;;;;;;;0.47;0.47;;;4.00;99.90;;;;;;5014715;28;20175;-74
2022/02/07 03:00:27;;;;;;;0.30;0.30;;;4.00;99.90;;;;;;5014894;28;20270;-73
2022/02/07 03:02:52;;;;;;;1.60;0.65;;;4.00;99.90;;;;;;5014554;28;20199;-74
2022/02/07 03:05:18;;;;;;;0.40;0.40;;;4.00;99.90;;;;;;5013410;28;20511;-74
2022/02/07 03:07:45;;;;;;;0.40;0.40;;;3.90;99.90;;;;;;5014535;28;20166;-74
2022/02/07 03:10:21;;;;;;;0.40;0.40;;;3.80;99.90;;;;;;5014859;28;20275;-73
2022/02/07 03:12:59;;;;;;;0.30;0.30;;;3.60;99.90;;;;;;5014767;28;20256;-72
2022/02/07 03:18:09;;;;;;;0.40;0.40;;;3.50;99.90;;;;;;5014168;28;20220;-73
2022/02/07 03:20:35;;;;;;;2.43;0.70;;;3.40;99.90;;;;;;5014293;28;20187;-72
2022/02/07 03:23:01;;;;;;;0.43;0.43;;;3.30;99.90;;;;;;5014316;28;20201;-73
2022/02/07 03:25:26;;;;;;;0.60;0.60;;;3.30;99.90;;;;;;5012992;28;20174;-73
2022/02/07 03:27:52;;;;;;;0.70;0.70;;;3.20;99.90;;;;;;5029051;28;20224;-73
2022/02/07 03:30:17;;;;;;;0.50;0.50;;;3.20;99.90;;;;;;5014046;28;20266;-73
2022/02/07 03:32:43;;;;;;;0.73;0.73;;;3.20;99.90;;;;;;5014371;28;20197;-73
2022/02/07 03:35:09;;;;;;;0.73;0.73;;;3.20;99.90;;;;;;5014084;28;20246;-73
2022/02/07 03:37:35;;;;;;;0.57;0.57;;;3.20;99.90;;;;;;5013972;28;20711;-73
2022/02/07 03:40:01;;;;;;;0.45;0.45;;;3.20;99.90;;;;;;5013847;28;20452;-73
2022/02/07 03:42:27;;;;;;;0.50;0.50;;;3.20;99.90;;;;;;5013922;28;20191;-72
2022/02/07 03:44:53;;;;;;;0.60;0.60;;;3.10;99.90;;;;;;5013934;28;20406;-73
2022/02/07 03:47:18;;;;;;;0.83;0.83;;;3.10;99.90;;;;;;5014320;28;20402;-73
2022/02/07 03:49:44;;;;;;;0.60;0.57;;;2.90;99.90;;;;;;5013492;28;20187;-72
2022/02/07 03:52:10;;;;;;;0.70;0.70;;;2.80;99.90;;;;;;5013979;28;20183;-73
2022/02/07 03:54:36;;;;;;;0.50;0.50;;;2.70;99.90;;;;;;5011962;28;20174;-73
2022/02/07 03:57:02;;;;;;;0.50;0.50;;;2.60;99.90;;;;;;5013904;28;20170;-73
2022/02/07 03:59:28;;;;;;;0.40;0.40;;;2.50;99.90;;;;;;5013329;28;20564;-73
2022/02/07 04:01:54;;;;;;;0.73;0.60;;;2.50;99.90;;;;;;5013621;28;20245;-73
2022/02/07 04:04:19;;;;;;;1.05;0.40;;;2.50;99.90;;;;;;5014176;28;20226;-72
2022/02/07 04:06:45;;;;;;;0.60;0.60;;;2.50;99.90;;;;;;5013646;28;20167;-72
2022/02/07 04:09:14;;;;;;;0.43;0.43;;;2.50;99.90;;;;;;5013389;28;20183;-72
2022/02/07 04:11:49;;;;;;;0.50;0.50;;;2.50;99.90;;;;;;5013627;28;20400;-73
2022/02/07 04:14:21;;;;;;;3.80;0.55;;;2.50;99.90;;;;;;5013462;28;20514;-72
2022/02/07 04:16:46;;;;;;;0.47;0.47;;;2.50;99.90;;;;;;5013654;28;20217;-72
2022/02/07 04:19:19;;;;;;;0.40;0.40;;;2.40;99.90;;;;;;5013151;28;20190;-72
2022/02/07 04:21:47;;;;;;;0.50;0.50;;;2.40;99.90;;;;;;5013728;28;20533;-72
2022/02/07 04:24:12;;;;;;;0.50;0.50;;;2.30;99.90;;;;;;5013644;28;20230;-73
2022/02/07 04:26:38;;;;;;;0.43;0.43;;;2.30;99.90;;;;;;5013417;28;20202;-73
2022/02/07 04:29:05;;;;;;;0.90;0.87;;;2.20;99.90;;;;;;5013278;28;20257;-73
2022/02/07 04:31:30;;;;;;;0.50;0.50;;;2.20;99.90;;;;;;5013610;28;20715;-72
2022/02/07 04:33:56;;;;;;;0.40;0.40;;;2.20;99.90;;;;;;5012284;28;20182;-72
2022/02/07 04:36:22;;;;;;;0.40;0.40;;;2.10;99.90;;;;;;5013382;28;20179;-72
2022/02/07 04:38:48;;;;;;;0.95;0.95;;;2.00;99.90;;;;;;5012946;28;20196;-73
2022/02/07 04:41:14;;;;;;;0.40;0.40;;;2.00;99.90;;;;;;5013184;28;20178;-73
2022/02/07 04:43:47;;;;;;;0.33;0.33;;;2.00;99.90;;;;;;5013439;28;20202;-72
2022/02/07 04:51:47;;;;;;;0.40;0.40;;;1.90;99.90;;;;;;5013392;28;20534;-73
2022/02/07 04:54:31;;;;;;;4.75;0.40;;;1.80;99.90;;;;;;5013263;28;20672;-73
2022/02/07 04:59:39;;;;;;;0.40;0.40;;;1.80;99.90;;;;;;5012996;28;20187;-73
2022/02/07 05:02:58;;;;;;;0.70;0.70;;;1.80;99.90;;;;;;5012985;28;20193;-73
2022/02/07 05:05:17;;;;;;;0.60;0.60;;;1.80;99.90;;;;;;5012974;28;20183;-71
2022/02/07 05:15:55;;;;;;;0.50;0.50;;;1.60;99.90;;;;;;5016803;28;20166;-73
2022/02/07 05:18:22;;;;;;;0.67;0.67;;;1.60;99.90;;;;;;5016320;28;20170;-72
2022/02/07 05:20:47;;;;;;;0.43;0.43;;;1.70;99.90;;;;;;5016579;28;20249;-71
2022/02/07 05:23:13;;;;;;;0.70;0.50;;;1.60;99.90;;;;;;5016536;28;20668;-72
2022/02/07 05:25:39;;;;;;;0.67;0.67;;;1.60;99.90;;;;;;5016893;28;20310;-73
2022/02/07 05:28:05;;;;;;;0.50;0.50;;;1.60;99.90;;;;;;5016285;28;20245;-72
2022/02/07 05:30:31;;;;;;;0.60;0.60;;;1.60;99.90;;;;;;5016375;28;20422;-74
2022/02/07 05:32:56;;;;;;;0.40;0.40;;;1.70;99.90;;;;;;5016627;28;20182;-72
2022/02/07 05:35:23;;;;;;;0.80;0.80;;;1.70;99.90;;;;;;5016616;28;20266;-73
2022/02/07 05:37:48;;;;;;;0.50;0.50;;;1.60;99.90;;;;;;5015523;28;20210;-73
2022/02/07 05:40:27;;;;;;;0.53;0.53;;;1.70;99.90;;;;;;5016396;28;20296;-73
2022/02/07 05:42:53;;;;;;;0.38;0.38;;;1.80;99.90;;;;;;5016867;28;20532;-74
2022/02/07 05:45:18;;;;;;;0.60;0.60;;;1.80;99.90;;;;;;5017149;28;20190;-73
2022/02/07 05:47:44;;;;;;;0.50;0.50;;;1.90;99.90;;;;;;5015685;28;20316;-71
2022/02/07 05:50:10;;;;;;;1.13;1.13;;;2.00;99.90;;;;;;5015921;28;20261;-72
2022/02/07 05:52:35;;;;;;;0.60;0.60;;;2.10;99.90;;;;;;5015961;28;20700;-71
2022/02/07 05:55:02;;;;;;;0.30;0.30;;;2.10;99.90;;;;;;5016087;28;20448;-73
2022/02/07 05:57:27;;;;;;;2.95;0.50;;;2.10;99.90;;;;;;5016028;28;20599;-72
2022/02/07 05:59:53;;;;;;;0.40;0.40;;;2.10;99.90;;;;;;5015868;28;20273;-73
2022/02/07 06:02:19;;;;;;;13.40;1.23;;;2.10;99.90;;;;;;5021395;28;20193;-72
2022/02/07 06:04:44;;;;;;;1.17;0.67;;;2.10;99.90;;;;;;5019361;28;20171;-74
2022/02/07 06:07:10;;;;;;;4.03;0.77;;;2.10;99.90;;;;;;5016213;28;20656;-73
2022/02/07 06:09:35;;;;;;;0.33;0.33;;;2.10;99.90;;;;;;5015059;28;20183;-73
2022/02/07 06:12:01;;;;;;;0.30;0.30;;;2.00;99.90;;;;;;5015436;28;20266;-72
2022/02/07 06:14:27;;;;;;;0.70;0.60;;;2.10;99.90;;;;;;5015629;28;20653;-71
2022/02/07 06:16:52;;;;;;;0.40;0.40;;;2.10;99.90;;;;;;5014932;28;20406;-74
2022/02/07 06:19:18;;;;;;;0.60;0.60;;;2.10;99.90;;;;;;5015220;28;20198;-74
2022/02/07 06:21:44;;;;;;;0.47;0.47;;;2.10;99.90;;;;;;5015436;28;20650;-73
2022/02/07 06:24:09;;;;;;;0.70;0.70;;;2.20;99.90;;;;;;5015407;28;20203;-75
2022/02/07 06:26:35;;;;;;;0.47;0.47;;;2.20;99.90;;;;;;5015694;28;20159;-76
2022/02/07 06:29:01;;;;;;;0.40;0.40;;;2.20;99.90;;;;;;5029980;28;20218;-72
2022/02/07 06:31:27;;;;;;;0.55;0.55;;;2.20;99.90;;;;;;5015668;28;20213;-71
2022/02/07 06:33:53;;;;;;;3.40;1.50;;;2.20;99.90;;;;;;5015135;28;20637;-70
2022/02/07 06:36:20;;;;;;;0.30;0.30;;;2.30;99.90;;;;;;5015325;28;20410;-71
2022/02/07 06:38:47;;;;;;;0.57;0.52;;;2.40;99.90;;;;;;5015054;28;20409;-71
2022/02/07 06:41:13;;;;;;;0.50;0.50;;;2.40;99.90;;;;;;5014948;28;20198;-71
2022/02/07 06:43:39;;;;;;;0.70;0.70;;;2.50;99.90;;;;;;5015079;28;20208;-71
2022/02/07 06:46:05;;;;;;;0.60;0.60;;;2.50;99.90;;;;;;5015094;28;20167;-72
2022/02/07 06:48:30;;;;;;;0.60;0.60;;;2.60;99.90;;;;;;5013303;28;20580;-72
2022/02/07 06:50:56;;;;;;;0.50;0.50;;;2.60;99.90;;;;;;5014733;28;20841;-71
2022/02/07 06:53:21;;;;;;;0.50;0.50;;;2.60;99.90;;;;;;5014803;28;20182;-69
2022/02/07 06:55:48;;;;;;;0.67;0.60;;;2.60;99.90;;;;;;5014669;28;20197;-71
2022/02/07 06:58:15;;;;;;;1.25;0.50;;;2.60;99.90;;;;;;5014201;28;20167;-70
2022/02/07 07:00:40;;;;;;;2.38;0.93;;;2.50;99.90;;;;;;5014509;28;20199;-70
2022/02/07 07:03:07;;;;;;;0.43;0.43;;;2.60;99.90;;;;;;5014781;28;20687;-71
2022/02/07 07:05:33;;;;;;;2.35;1.50;;;2.60;99.90;;;;;;5014459;28;20597;-71
2022/02/07 07:08:00;;;;;;;0.67;0.67;;;2.70;99.90;;;;;;5014131;28;20170;-71
2022/02/07 07:10:25;;;;;;;0.95;0.95;;;2.70;99.90;;;;;;5014602;28;20206;-70
2022/02/07 07:13:00;;;;;;;0.57;0.57;;;2.80;99.90;;;;;;5014574;28;20175;-69
2022/02/07 07:15:36;;;;;;;0.80;0.80;;;2.90;99.90;;;;;;5014144;28;20516;-71
2022/02/07 07:18:02;;;;;;;0.50;0.50;;;2.90;99.90;;;;;;5029183;28;20174;-69
2022/02/07 07:20:28;;;;;;;2.53;1.30;;;3.00;99.90;;;;;;5014465;28;20680;-70
2022/02/07 07:22:53;;;;;;;0.80;0.73;;;3.10;99.90;;;;;;5013250;28;20190;-70
2022/02/07 07:25:19;;;;;;;0.63;0.63;;;3.10;99.90;;;;;;4994934;28;20168;-70
2022/02/07 07:28:03;;;;;;;0.50;0.50;;;3.10;99.90;;;;;;5003391;28;20182;-72
2022/02/07 07:30:34;;;;;;;0.93;0.60;;;3.10;99.90;;;;;;5013280;28;20197;-71
2022/02/07 07:33:07;;;;;;;3.08;1.33;;;3.10;99.90;;;;;;5013039;28;20178;-71
2022/02/07 07:35:33;;;;;;;0.85;0.85;;;3.10;99.90;;;;;;5029503;28;20261;-70
2022/02/07 07:37:58;;;;;;;2.50;1.27;;;3.10;99.90;;;;;;5013721;28;20262;-70
2022/02/07 07:40:24;;;;;;;1.37;0.70;;;3.10;99.90;;;;;;5013574;28;20622;-71
2022/02/07 07:42:55;;;;;;;0.50;0.50;;;3.10;99.90;;;;;;5009950;28;20285;-71
2022/02/07 07:45:24;;;;;;;0.82;0.82;;;3.10;99.90;;;;;;5013665;28;20497;-70
2022/02/07 07:47:56;;;;;;;2.00;1.90;;;3.30;99.90;;;;;;5013793;28;20250;-70
2022/02/07 07:50:28;;;;;;;2.35;0.93;;;3.70;99.90;;;;;;5013744;28;20194;-69
2022/02/07 08:01:14;;;;;;;0.93;0.93;;;4.30;99.90;;;;;;5014094;28;20159;-71
2022/02/07 08:03:42;;;;;;;0.90;0.90;;;5.10;99.90;;;;;;5013948;28;20230;-70
2022/02/07 08:06:13;;;;;;;1.20;0.70;;;5.60;99.90;;;;;;5030173;28;20563;-69
2022/02/07 08:09:11;;;;;;;3.35;1.00;;;6.10;99.90;;;;;;5015169;28;20170;-70
2022/02/07 08:11:25;;;;;;;7.70;0.73;;;6.20;99.90;;;;;;5018092;28;20184;-73
2022/02/07 08:13:52;;;;;;;0.93;0.83;;;6.20;99.90;;;;;;5015318;28;20163;-72
2022/02/07 08:16:18;;;;;;;2.95;1.00;;;6.10;99.90;;;;;;5014181;28;20177;-74
2022/02/07 08:18:44;;;;;;;2.10;0.80;;;5.90;99.90;;;;;;5013313;28;20181;-73
2022/02/07 08:21:09;;;;;;;0.60;0.57;;;5.80;99.90;;;;;;5014132;28;20185;-74
2022/02/07 08:23:36;;;;;;;0.50;0.50;;;5.60;99.90;;;;;;5013842;28;20665;-71
2022/02/07 08:26:03;;;;;;;1.17;0.85;;;5.50;99.90;;;;;;5014266;28;20261;-76
2022/02/07 08:28:29;;;;;;;1.50;0.70;;;5.50;99.90;;;;;;5014074;28;20182;-71
2022/02/07 08:30:56;;;;;;;0.50;0.50;;;5.50;99.90;;;;;;5012799;28;20193;-69
2022/02/07 08:33:21;;;;;;;1.42;1.20;;;5.40;99.90;;;;;;5008651;28;20233;-70
2022/02/07 08:35:47;;;;;;;1.07;1.07;;;5.30;99.90;;;;;;4997249;28;20583;-69
2022/02/07 08:38:13;;;;;;;1.23;0.80;;;5.30;99.90;;;;;;5012984;28;20256;-69
2022/02/07 08:40:38;;;;;;;0.87;0.87;;;5.30;99.90;;;;;;5014587;28;20198;-71
2022/02/07 08:43:05;;;;;;;1.97;1.77;;;5.20;99.90;;;;;;5016820;28;20255;-71
2022/02/07 08:45:31;;;;;;;0.85;0.77;;;5.20;99.90;;;;;;5017041;28;20171;-71
2022/02/07 08:47:56;;;;;;;3.33;1.03;;;5.20;99.90;;;;;;5016670;28;20177;-70
2022/02/07 08:50:24;;;;;;;1.10;0.80;;;5.20;99.90;;;;;;5016961;28;20228;-70
2022/02/07 08:52:51;;;;;;;1.27;1.27;;;5.30;99.90;;;;;;5016706;28;20409;-69
2022/02/07 08:55:27;;;;;;;0.88;0.77;;;5.50;99.90;;;;;;5016748;28;20671;-69
2022/02/07 08:57:59;;;;;;;2.70;1.33;;;5.80;99.90;;;;;;5016592;28;20177;-69
2022/02/07 09:03:46;;;;;;;1.35;1.25;;;7.20;99.90;;;;;;4996151;28;20298;-68
2022/02/07 09:09:41;;;;;;;1.70;0.80;;;7.50;99.90;;;;;;5016555;28;20302;-69
2022/02/07 09:11:44;;;;;;;0.65;0.65;;;7.30;99.90;;;;;;5013820;28;20179;-69
2022/02/07 09:14:12;;;;;;;2.60;1.10;;;7.10;99.90;;;;;;5016581;28;20175;-69
2022/02/07 09:16:40;;;;;;;1.25;0.75;;;6.70;99.90;;;;;;5017584;28;20509;-68
2022/02/07 09:19:08;;;;;;;2.28;0.60;;;6.50;99.90;;;;;;5016501;28;20600;-70
2022/02/07 09:21:33;;;;;;;1.70;0.88;;;6.40;99.90;;;;;;5016671;28;20173;-70
2022/02/07 09:23:59;;;;;;;1.03;0.70;;;6.20;99.90;;;;;;5016515;28;20365;-70
2022/02/07 09:26:26;;;;;;;0.90;0.88;;;6.10;99.90;;;;;;5016401;28;20376;-70
2022/02/07 09:28:52;;;;;;;7.72;1.95;;;6.00;99.90;;;;;;5016281;28;20165;-70
2022/02/07 09:31:18;;;;;;;0.90;0.90;;;5.90;99.90;;;;;;5016536;28;20174;-69
2022/02/07 09:33:45;;;;;;;3.50;1.05;;;5.80;99.90;;;;;;5016795;28;20517;-69
2022/02/07 09:36:12;;;;;;;6.75;2.35;;;5.80;99.90;;;;;;5015114;28;20190;-68
2022/02/07 09:38:38;;;;;;;1.75;1.00;;;5.90;99.90;;;;;;5015926;28;20174;-70
2022/02/07 09:41:04;;;;;;;1.40;1.30;;;5.90;99.90;;;;;;5016249;28;20178;-70
2022/02/07 09:43:34;;;;;;;1.53;1.00;;;6.10;99.90;;;;;;5015788;28;20526;-72
2022/02/07 09:46:08;;;;;;;1.15;0.90;;;6.20;99.90;;;;;;5016342;28;20186;-72
2022/02/07 09:48:38;;;;;;;1.48;0.90;;;6.40;99.90;;;;;;5015660;28;20167;-74
2022/02/07 09:51:04;;;;;;;1.55;0.90;;;6.50;99.90;;;;;;5014849;28;20193;-71
2022/02/07 09:53:30;;;;;;;1.40;0.63;;;6.60;99.90;;;;;;5014858;28;20661;-70
2022/02/07 09:55:58;;;;;;;1.02;0.95;;;6.70;99.90;;;;;;5015027;28;20614;-71
2022/02/07 09:58:24;;;;;;;1.27;1.17;;;6.70;99.90;;;;;;5014894;28;20645;-71
2022/02/07 10:00:49;;;;;;;2.40;1.30;;;6.80;99.90;;;;;;5015189;28;20241;-70
2022/02/07 10:03:20;;;;;;;1.70;1.23;;;6.90;99.90;;;;;;5015181;28;20500;-70
2022/02/07 10:05:54;;;;;;;1.80;1.10;;;6.90;99.90;;;;;;5014087;28;20179;-71
2022/02/07 10:11:09;;;;;;;1.77;0.63;;;7.10;99.90;;;;;;5015305;28;20193;-70
2022/02/07 10:14:02;;;;;;;2.85;1.10;;;7.00;99.90;;;;;;4996069;28;20179;-71
2022/02/07 10:17:00;;;;;;;2.92;1.00;;;7.00;99.90;;;;;;4995708;28;20187;-71
2022/02/07 10:19:36;;;;;;;2.45;1.80;;;6.90;99.90;;;;;;5001146;28;20186;-71
2022/02/07 10:43:45;;;;;;;2.08;1.35;;;7.40;99.90;;;;;;5014423;28;20271;-69
2022/02/07 10:46:17;;;;;;;0.80;0.70;;;7.60;99.90;;;;;;5014823;28;20171;-71
2022/02/07 10:48:54;;;;;;;0.63;0.40;;;7.90;99.90;;;;;;5014408;28;20167;-71
2022/02/07 10:51:22;;;;;;;2.95;0.90;;;8.10;99.90;;;;;;5012993;28;20181;-71
2022/02/07 10:53:53;;;;;;;0.70;0.70;;;8.20;99.90;;;;;;5014595;28;20182;-70
2022/02/07 10:56:36;;;;;;;2.70;0.68;;;8.30;99.90;;;;;;5014916;28;20514;-71
2022/02/07 10:59:08;;;;;;;1.02;0.80;;;8.40;99.90;;;;;;5014086;28;20198;-71
2022/02/07 11:02:08;;;;;;;1.80;1.40;;;8.60;99.90;;;;;;5014638;28;20282;-70
2022/02/07 11:06:59;;;;;;;1.30;0.85;;;8.40;99.90;;;;;;5014943;28;20182;-70
2022/02/07 11:09:37;;;;;;;0.80;0.70;;;8.40;99.90;;;;;;5014448;28;20194;-69
2022/02/07 11:12:38;;;;;;;0.63;0.50;;;8.10;99.90;;;;;;5015516;28;20174;-70
2022/02/07 11:15:28;;;;;;;1.65;0.70;;;7.90;99.90;;;;;;5014654;28;20178;-69
2022/02/07 11:20:45;;;;;;;0.82;0.80;;;7.50;99.90;;;;;;5014300;28;20183;-69
2022/02/07 11:23:32;;;;;;;0.57;0.50;;;7.30;99.90;;;;;;5004242;28;20198;-71
2022/02/07 11:26:15;;;;;;;0.77;0.77;;;7.20;99.90;;;;;;5012758;28;20186;-72
2022/02/07 11:28:43;;;;;;;0.80;0.68;;;7.10;99.90;;;;;;5011192;28;20230;-70
2022/02/07 11:31:10;;;;;;;0.90;0.90;;;7.00;99.90;;;;;;5012782;28;20186;-69
2022/02/07 11:34:02;;;;;;;3.22;1.20;;;6.90;99.90;;;;;;5014112;28;20249;-70
2022/02/07 11:36:34;;;;;;;1.13;0.60;;;6.90;99.90;;;;;;5013876;28;20186;-70
2022/02/07 11:39:03;;;;;;;4.22;1.00;;;6.70;99.90;;;;;;5013492;28;20213;-70
2022/02/07 11:41:29;;;;;;;1.95;0.75;;;6.70;99.90;;;;;;5013713;28;20180;-69
2022/02/07 11:43:55;;;;;;;0.70;0.70;;;6.50;99.90;;;;;;5014077;28;20201;-70
2022/02/07 11:46:21;;;;;;;0.60;0.60;;;6.50;99.90;;;;;;5003365;28;20437;-71
2022/02/07 11:48:52;;;;;;;2.85;0.77;;;6.40;99.90;;;;;;4994059;28;20182;-71
2022/02/07 11:51:23;;;;;;;1.30;1.20;;;6.30;99.90;;;;;;5006493;28;20523;-69
2022/02/07 11:54:02;;;;;;;0.50;0.50;;;6.30;99.90;;;;;;5013898;28;20175;-71
2022/02/07 11:56:47;;;;;;;1.63;1.02;;;6.30;99.90;;;;;;5013392;28;20260;-71
2022/02/07 12:02:14;;;;;;;0.73;0.73;;;6.20;99.90;;;;;;5013678;28;20207;-71
2022/02/07 12:04:45;;;;;;;1.13;0.82;;;6.20;99.90;;;;;;5013650;28;20229;-71
2022/02/07 12:07:11;;;;;;;0.60;0.60;;;6.10;99.90;;;;;;5013498;28;20640;-71
2022/02/07 12:09:39;;;;;;;0.90;0.90;;;6.10;99.90;;;;;;5013314;28;20272;-71
2022/02/07 12:12:25;;;;;;;10.07;1.00;;;6.20;99.90;;;;;;5012286;28;20427;-72
2022/02/07 12:14:51;;;;;;;4.05;0.80;;;6.20;99.90;;;;;;5012344;28;20221;-71
2022/02/07 12:17:43;;;;;;;2.35;0.68;;;6.20;99.90;;;;;;5014025;28;20205;-71
2022/02/07 12:20:12;;;;;;;1.58;0.85;;;6.30;99.90;;;;;;5013685;28;20551;-70
2022/02/07 12:22:51;;;;;;;2.17;1.08;;;6.30;99.90;;;;;;5013519;28;20198;-71
2022/02/07 12:25:29;;;;;;;2.03;0.82;;;6.40;99.90;;;;;;5013593;28;20206;-71
2022/02/07 12:27:58;;;;;;;1.55;1.45;;;6.40;99.90;;;;;;5013082;28;20193;-71
2022/02/07 12:30:31;;;;;;;3.25;1.40;;;6.50;99.90;;;;;;5013328;28;20288;-69
2022/02/07 12:33:04;;;;;;;1.25;0.80;;;6.50;99.90;;;;;;5013549;28;20273;-70
2022/02/07 12:35:30;;;;;;;0.85;0.70;;;6.60;99.90;;;;;;5013703;28;20174;-70
2022/02/07 12:37:56;;;;;;;2.23;0.80;;;6.60;99.90;;;;;;5013337;28;20720;-70
2022/02/07 12:40:23;;;;;;;1.38;0.60;;;6.60;99.90;;;;;;5013350;28;20432;-71
2022/02/07 12:42:54;;;;;;;1.00;0.75;;;6.70;99.90;;;;;;5013255;28;20194;-70
2022/02/07 12:45:26;;;;;;;1.15;1.05;;;6.70;99.90;;;;;;5013593;28;20493;-71
2022/02/07 12:47:56;;;;;;;4.40;1.40;;;6.70;99.90;;;;;;5012844;28;20165;-70
2022/02/07 12:50:23;;;;;;;2.05;0.50;;;6.80;99.90;;;;;;5013027;28;20187;-69
2022/02/07 12:52:49;;;;;;;1.27;0.88;;;6.90;99.90;;;;;;5012915;28;20182;-70
2022/02/07 12:55:16;;;;;;;0.60;0.60;;;7.00;99.90;;;;;;5013299;28;20182;-70
2022/02/07 12:57:44;;;;;;;0.98;0.98;;;7.10;99.90;;;;;;5012847;28;20605;-70
2022/02/07 13:00:12;;;;;;;1.95;0.98;;;7.20;99.90;;;;;;5013014;28;20660;-70
2022/02/07 13:02:45;;;;;;;2.45;0.50;;;7.30;99.90;;;;;;5012680;28;20186;-71
2022/02/07 13:05:12;;;;;;;0.60;0.60;;;7.30;99.90;;;;;;5012806;28;20171;-70
2022/02/07 13:07:43;;;;;;;0.60;0.60;;;7.20;99.90;;;;;;5012545;28;20158;-70
2022/02/07 13:10:12;;;;;;;0.70;0.70;;;7.30;99.90;;;;;;5012650;28;20186;-75
2022/02/07 13:15:29;;;;;;;0.85;0.70;;;7.40;99.90;;;;;;5012955;28;20654;-73
2022/02/07 13:18:00;;;;;;;2.65;1.13;;;7.30;99.90;;;;;;5012713;28;20177;-74
2022/02/07 13:20:26;;;;;;;5.30;2.03;;;7.30;99.90;;;;;;5012895;28;20190;-74
2022/02/07 13:23:04;;;;;;;0.90;0.88;;;7.40;99.90;;;;;;5011129;28;20198;-73
2022/02/07 13:25:44;;;;;;;0.60;0.60;;;7.40;99.90;;;;;;5012850;28;20262;-76
2022/02/07 13:28:15;;;;;;;0.57;0.50;;;7.30;99.90;;;;;;5013513;28;20185;-72
2022/02/07 13:30:48;;;;;;;0.80;0.80;;;7.30;99.90;;;;;;5014685;28;20205;-68
2022/02/07 13:33:13;;;;;;;1.40;1.10;;;7.40;99.90;;;;;;5015490;28;20174;-71
2022/02/07 13:35:43;;;;;;;1.00;0.90;;;7.40;99.90;;;;;;5015907;28;20591;-73
2022/02/07 13:38:10;;;;;;;1.48;1.08;;;7.30;99.90;;;;;;5015831;28;20626;-71
2022/02/07 13:40:44;;;;;;;2.20;0.68;;;7.20;99.90;;;;;;5015197;28;20273;-72
2022/02/07 13:43:24;;;;;;;0.75;0.70;;;7.30;99.90;;;;;;5015522;28;20267;-74
2022/02/07 13:45:53;;;;;;;1.02;0.50;;;7.10;99.90;;;;;;5015783;28;20201;-73
2022/02/07 13:48:20;;;;;;;2.22;1.05;;;7.10;99.90;;;;;;5015745;28;20159;-74
2022/02/07 13:50:50;;;;;;;0.93;0.93;;;7.00;99.90;;;;;;5015618;28;20703;-73
2022/02/07 13:53:18;;;;;;;0.80;0.80;;;7.10;99.90;;;;;;5015744;28;20197;-72
2022/02/07 13:55:55;;;;;;;1.55;1.00;;;7.10;99.90;;;;;;5016115;28;20190;-75
2022/02/07 13:58:33;;;;;;;0.88;0.70;;;7.00;99.90;;;;;;5015713;28;20173;-73
2022/02/07 14:01:04;;;;;;;1.15;1.05;;;6.90;99.90;;;;;;5014447;28;20640;-73
2022/02/07 14:03:40;;;;;;;1.42;1.35;;;6.90;99.90;;;;;;5015782;28;20202;-75
2022/02/07 14:06:08;;;;;;;1.92;0.82;;;6.90;99.90;;;;;;5015874;28;20173;-73
2022/02/07 14:08:46;;;;;;;4.20;0.90;;;7.00;99.90;;;;;;5015273;28;20170;-72
2022/02/07 14:11:18;;;;;;;0.85;0.80;;;7.00;99.90;;;;;;5015673;28;20166;-74
2022/02/07 14:13:45;;;;;;;0.80;0.80;;;7.00;99.90;;;;;;5015871;28;20617;-74
2022/02/07 14:16:11;;;;;;;2.47;0.93;;;7.00;99.90;;;;;;5015519;28;20174;-74
2022/02/07 14:18:43;;;;;;;4.07;1.25;;;6.90;99.90;;;;;;5015253;28;20217;-73
2022/02/07 14:21:10;;;;;;;1.52;1.05;;;7.00;99.90;;;;;;5015557;28;20567;-73
2022/02/07 14:23:37;;;;;;;0.60;0.60;;;7.00;99.90;;;;;;5015028;28;20680;-73
2022/02/07 14:26:04;;;;;;;0.85;0.82;;;6.90;99.90;;;;;;5015476;28;20170;-72
2022/02/07 14:28:30;;;;;;;1.77;1.67;;;6.80;99.90;;;;;;5014876;28;20180;-74
2022/02/07 14:30:58;;;;;;;0.90;0.70;;;6.70;99.90;;;;;;5015133;28;20225;-75
2022/02/07 14:33:24;;;;;;;6.63;1.75;;;6.60;99.90;;;;;;5015174;28;20175;-73
2022/02/07 14:35:50;;;;;;;0.55;0.55;;;6.50;99.90;;;;;;5014971;28;20182;-74
2022/02/07 14:38:16;;;;;;;2.33;1.80;;;6.40;99.90;;;;;;5014393;28;20211;-73
2022/02/07 14:40:43;;;;;;;2.93;0.80;;;6.20;99.90;;;;;;5014797;28;20434;-73
2022/02/07 14:43:14;;;;;;;1.25;1.15;;;6.20;99.90;;;;;;5014825;28;20269;-74
2022/02/07 14:45:53;;;;;;;0.80;0.80;;;6.10;99.90;;;;;;5015139;28;20167;-73
2022/02/07 14:48:19;;;;;;;1.45;1.00;;;6.00;99.90;;;;;;5014810;28;20190;-74
2022/02/07 14:50:44;;;;;;;0.60;0.57;;;6.00;99.90;;;;;;5014935;28;20211;-72
2022/02/07 14:53:13;;;;;;;3.13;1.10;;;6.00;99.90;;;;;;5014971;28;20196;-75
2022/02/07 14:55:40;;;;;;;1.17;1.17;;;6.00;99.90;;;;;;5015052;28;20175;-72
2022/02/07 14:58:06;;;;;;;1.48;1.05;;;6.00;99.90;;;;;;5014352;28;20225;-72
2022/02/07 15:00:32;;;;;;;2.35;1.10;;;6.00;99.90;;;;;;5014974;28;20538;-74
2022/02/07 15:02:59;;;;;;;1.13;0.70;;;5.90;99.90;;;;;;5014469;28;20263;-73
2022/02/07 15:05:26;;;;;;;0.77;0.77;;;5.90;99.90;;;;;;5014482;28;20398;-73
2022/02/07 15:07:52;;;;;;;5.30;1.33;;;6.00;99.90;;;;;;5013884;28;20174;-74
2022/02/07 15:10:17;;;;;;;1.40;1.30;;;6.10;99.90;;;;;;5014301;28;20275;-73
2022/02/07 15:12:44;;;;;;;2.00;1.70;;;6.10;99.90;;;;;;5014286;28;20254;-74
2022/02/07 15:15:10;;;;;;;1.50;1.20;;;6.10;99.90;;;;;;5014610;28;20221;-74
2022/02/07 15:17:36;;;;;;;1.17;1.17;;;6.10;99.90;;;;;;5014049;28;20170;-75
2022/02/07 15:20:04;;;;;;;0.73;0.73;;;6.10;99.90;;;;;;5014203;28;20599;-74
2022/02/07 15:22:30;;;;;;;1.60;1.17;;;6.00;99.90;;;;;;5014295;28;20170;-74
2022/02/07 15:24:56;;;;;;;1.90;0.87;;;6.00;99.90;;;;;;5014302;28;20619;-74